sensor_id;sensor_type;location;lat;lon;timestamp;temperature;humidity
3275;DHT22;1649;53.672;10.064;2023-12-20T00:00:51;4.90;99.90
3275;DHT22;1649;53.672;10.064;2023-12-20T00:03:17;4.90;99.90
3275;DHT22;1649;53.672;10.064;2023-12-20T00:05:42;4.90;99.90
3275;DHT22;1649;53.672;10.064;2023-12-20T00:08:08;4.90;99.90
3275;DHT22;1649;53.672;10.064;2023-12-20T00:10:33;4.80;99.90
3275;DHT22;1649;53.672;10.064;2023-12-20T00:12:58;4.80;99.90
3275;DHT22;1649;53.672;10.064;2023-12-20T00:15:24;4.80;99.90
3275;DHT22;1649;53.672;10.064;2023-12-20T00:17:49;4.70;99.90
3275;DHT22;1649;53.672;10.064;2023-12-20T00:20:15;4.70;99.90
3275;DHT22;1649;53.672;10.064;2023-12-20T00:22:41;4.70;99.90
3275;DHT22;1649;53.672;10.064;2023-12-20T00:25:07;4.70;99.90
3275;DHT22;1649;53.672;10.064;2023-12-20T00:27:32;4.60;99.90
3275;DHT22;1649;53.672;10.064;2023-12-20T00:29:58;4.60;99.90
3275;DHT22;1649;53.672;10.064;2023-12-20T00:32:23;4.60;99.90
3275;DHT22;1649;53.672;10.064;2023-12-20T00:34:49;4.70;99.90
3275;DHT22;1649;53.672;10.064;2023-12-20T00:37:14;4.70;99.90
3275;DHT22;1649;53.672;10.064;2023-12-20T00:39:40;4.80;99.90
3275;DHT22;1649;53.672;10.064;2023-12-20T00:42:05;4.80;99.90
3275;DHT22;1649;53.672;10.064;2023-12-20T00:44:31;4.80;99.90
3275;DHT22;1649;53.672;10.064;2023-12-20T00:46:57;4.90;99.90
3275;DHT22;1649;53.672;10.064;2023-12-20T00:49:22;4.90;99.90
3275;DHT22;1649;53.672;10.064;2023-12-20T00:51:48;4.90;99.90
3275;DHT22;1649;53.672;10.064;2023-12-20T00:54:15;4.90;99.90
3275;DHT22;1649;53.672;10.064;2023-12-20T00:56:41;4.90;99.90
3275;DHT22;1649;53.672;10.064;2023-12-20T00:59:06;4.90;99.90
3275;DHT22;1649;53.672;10.064;2023-12-20T01:01:32;4.90;99.90
3275;DHT22;1649;53.672;10.064;2023-12-20T01:03:58;5.00;99.90
3275;DHT22;1649;53.672;10.064;2023-12-20T01:06:24;5.00;99.90
3275;DHT22;1649;53.672;10.064;2023-12-20T01:08:49;5.00;99.90
3275;DHT22;1649;53.672;10.064;2023-12-20T01:11:15;5.10;99.90
3275;DHT22;1649;53.672;10.064;2023-12-20T01:13:40;5.00;99.90
3275;DHT22;1649;53.672;10.064;2023-12-20T01:16:06;5.00;99.90
3275;DHT22;1649;53.672;10.064;2023-12-20T01:18:31;5.00;99.90
3275;DHT22;1649;53.672;10.064;2023-12-20T01:21:02;4.90;99.90
3275;DHT22;1649;53.672;10.064;2023-12-20T01:23:28;4.90;99.90
3275;DHT22;1649;53.672;10.064;2023-12-20T01:25:54;4.90;99.90
3275;DHT22;1649;53.672;10.064;2023-12-20T01:28:19;4.80;99.90
3275;DHT22;1649;53.672;10.064;2023-12-20T01:30:45;4.80;99.90
3275;DHT22;1649;53.672;10.064;2023-12-20T01:33:10;4.80;99.90
3275;DHT22;1649;53.672;10.064;2023-12-20T01:35:36;4.80;99.90
3275;DHT22;1649;53.672;10.064;2023-12-20T01:38:01;4.80;99.90
3275;DHT22;1649;53.672;10.064;2023-12-20T01:40:27;4.70;99.90
3275;DHT22;1649;53.672;10.064;2023-12-20T01:43:07;4.70;99.90
3275;DHT22;1649;53.672;10.064;2023-12-20T01:45:33;4.70;99.90
3275;DHT22;1649;53.672;10.064;2023-12-20T01:47:59;4.70;99.90
3275;DHT22;1649;53.672;10.064;2023-12-20T01:50:25;4.70;99.90
3275;DHT22;1649;53.672;10.064;2023-12-20T01:52:52;4.80;99.90
3275;DHT22;1649;53.672;10.064;2023-12-20T01:55:21;4.80;99.90
3275;DHT22;1649;53.672;10.064;2023-12-20T01:57:47;4.90;99.90
3275;DHT22;1649;53.672;10.064;2023-12-20T02:00:13;4.90;99.90
3275;DHT22;1649;53.672;10.064;2023-12-20T02:02:40;4.90;99.90
3275;DHT22;1649;53.672;10.064;2023-12-20T02:05:06;5.00;99.90
3275;DHT22;1649;53.672;10.064;2023-12-20T02:07:32;5.00;99.90
3275;DHT22;1649;53.672;10.064;2023-12-20T02:09:59;5.00;99.90
3275;DHT22;1649;53.672;10.064;2023-12-20T02:12:25;5.00;99.90
3275;DHT22;1649;53.672;10.064;2023-12-20T02:14:50;5.00;99.90
3275;DHT22;1649;53.672;10.064;2023-12-20T02:17:16;5.00;99.90
3275;DHT22;1649;53.672;10.064;2023-12-20T02:19:43;5.00;99.90
3275;DHT22;1649;53.672;10.064;2023-12-20T02:22:09;5.00;99.90
3275;DHT22;1649;53.672;10.064;2023-12-20T02:24:35;5.00;99.90
3275;DHT22;1649;53.672;10.064;2023-12-20T02:27:01;5.00;99.90
3275;DHT22;1649;53.672;10.064;2023-12-20T02:29:27;5.00;99.90
3275;DHT22;1649;53.672;10.064;2023-12-20T02:31:52;5.00;99.90
3275;DHT22;1649;53.672;10.064;2023-12-20T02:34:18;5.00;99.90
3275;DHT22;1649;53.672;10.064;2023-12-20T02:36:43;5.00;99.90
3275;DHT22;1649;53.672;10.064;2023-12-20T02:39:09;5.00;99.90
3275;DHT22;1649;53.672;10.064;2023-12-20T02:41:34;5.00;99.90
3275;DHT22;1649;53.672;10.064;2023-12-20T02:44:01;5.10;99.90
3275;DHT22;1649;53.672;10.064;2023-12-20T02:46:27;5.10;99.90
3275;DHT22;1649;53.672;10.064;2023-12-20T02:48:52;5.10;99.90
3275;DHT22;1649;53.672;10.064;2023-12-20T02:51:18;5.10;99.90
3275;DHT22;1649;53.672;10.064;2023-12-20T02:53:43;5.10;99.90
3275;DHT22;1649;53.672;10.064;2023-12-20T02:56:09;5.10;99.90
3275;DHT22;1649;53.672;10.064;2023-12-20T02:58:34;5.10;99.90
3275;DHT22;1649;53.672;10.064;2023-12-20T03:00:59;5.10;99.90
3275;DHT22;1649;53.672;10.064;2023-12-20T03:03:25;5.10;99.90
3275;DHT22;1649;53.672;10.064;2023-12-20T03:05:50;5.10;99.90
3275;DHT22;1649;53.672;10.064;2023-12-20T03:08:16;5.10;99.90
3275;DHT22;1649;53.672;10.064;2023-12-20T03:10:41;5.10;99.90
3275;DHT22;1649;53.672;10.064;2023-12-20T03:13:07;5.20;99.90
3275;DHT22;1649;53.672;10.064;2023-12-20T03:15:32;5.10;99.90
3275;DHT22;1649;53.672;10.064;2023-12-20T03:17:58;5.20;99.90
3275;DHT22;1649;53.672;10.064;2023-12-20T03:20:24;5.10;99.90
3275;DHT22;1649;53.672;10.064;2023-12-20T03:22:51;5.20;99.90
3275;DHT22;1649;53.672;10.064;2023-12-20T03:25:17;5.20;99.90
3275;DHT22;1649;53.672;10.064;2023-12-20T03:27:42;5.20;99.90
3275;DHT22;1649;53.672;10.064;2023-12-20T03:30:08;5.20;99.90
3275;DHT22;1649;53.672;10.064;2023-12-20T03:32:34;5.20;99.90
3275;DHT22;1649;53.672;10.064;2023-12-20T03:34:59;5.20;99.90
3275;DHT22;1649;53.672;10.064;2023-12-20T03:37:25;5.20;99.90
3275;DHT22;1649;53.672;10.064;2023-12-20T03:39:50;5.20;99.90
3275;DHT22;1649;53.672;10.064;2023-12-20T03:42:16;5.20;99.90
3275;DHT22;1649;53.672;10.064;2023-12-20T03:44:41;5.20;99.90
3275;DHT22;1649;53.672;10.064;2023-12-20T03:47:07;5.20;99.90
3275;DHT22;1649;53.672;10.064;2023-12-20T03:49:33;5.20;99.90
3275;DHT22;1649;53.672;10.064;2023-12-20T03:51:58;5.20;99.90
3275;DHT22;1649;53.672;10.064;2023-12-20T03:54:24;5.20;99.90
3275;DHT22;1649;53.672;10.064;2023-12-20T03:56:50;5.10;99.90
3275;DHT22;1649;53.672;10.064;2023-12-20T03:59:17;5.20;99.90
3275;DHT22;1649;53.672;10.064;2023-12-20T04:01:43;5.10;99.90
3275;DHT22;1649;53.672;10.064;2023-12-20T04:04:10;5.10;99.90
3275;DHT22;1649;53.672;10.064;2023-12-20T04:06:36;5.10;99.90
3275;DHT22;1649;53.672;10.064;2023-12-20T04:09:01;5.10;99.90
3275;DHT22;1649;53.672;10.064;2023-12-20T04:11:27;5.10;99.90
3275;DHT22;1649;53.672;10.064;2023-12-20T04:13:52;5.00;99.90
3275;DHT22;1649;53.672;10.064;2023-12-20T04:16:18;5.00;99.90
3275;DHT22;1649;53.672;10.064;2023-12-20T04:18:43;5.10;99.90
3275;DHT22;1649;53.672;10.064;2023-12-20T04:21:09;5.10;99.90
3275;DHT22;1649;53.672;10.064;2023-12-20T04:23:34;5.10;99.90
3275;DHT22;1649;53.672;10.064;2023-12-20T04:26:00;5.20;99.90
3275;DHT22;1649;53.672;10.064;2023-12-20T04:28:25;5.20;99.90
3275;DHT22;1649;53.672;10.064;2023-12-20T04:30:51;5.10;99.90
3275;DHT22;1649;53.672;10.064;2023-12-20T04:33:16;5.10;99.90
3275;DHT22;1649;53.672;10.064;2023-12-20T04:35:42;5.10;99.90
3275;DHT22;1649;53.672;10.064;2023-12-20T04:38:08;5.10;99.90
3275;DHT22;1649;53.672;10.064;2023-12-20T04:40:34;5.10;99.90
3275;DHT22;1649;53.672;10.064;2023-12-20T04:42:59;5.10;99.90
3275;DHT22;1649;53.672;10.064;2023-12-20T04:45:25;5.10;99.90
3275;DHT22;1649;53.672;10.064;2023-12-20T04:47:51;5.20;99.90
3275;DHT22;1649;53.672;10.064;2023-12-20T04:50:17;5.20;99.90
3275;DHT22;1649;53.672;10.064;2023-12-20T04:52:42;5.20;99.90
3275;DHT22;1649;53.672;10.064;2023-12-20T04:55:08;5.20;99.90
3275;DHT22;1649;53.672;10.064;2023-12-20T04:57:35;5.20;99.90
3275;DHT22;1649;53.672;10.064;2023-12-20T05:00:00;5.20;99.90
3275;DHT22;1649;53.672;10.064;2023-12-20T05:02:26;5.20;99.90
3275;DHT22;1649;53.672;10.064;2023-12-20T05:04:51;5.20;99.90
3275;DHT22;1649;53.672;10.064;2023-12-20T05:07:17;5.30;99.90
3275;DHT22;1649;53.672;10.064;2023-12-20T05:09:42;5.20;99.90
3275;DHT22;1649;53.672;10.064;2023-12-20T05:12:08;5.20;99.90
3275;DHT22;1649;53.672;10.064;2023-12-20T05:14:33;5.20;99.90
3275;DHT22;1649;53.672;10.064;2023-12-20T05:16:59;5.30;99.90
3275;DHT22;1649;53.672;10.064;2023-12-20T05:19:24;5.30;99.90
3275;DHT22;1649;53.672;10.064;2023-12-20T05:21:50;5.30;99.90
3275;DHT22;1649;53.672;10.064;2023-12-20T05:24:15;5.30;99.90
3275;DHT22;1649;53.672;10.064;2023-12-20T05:26:41;5.30;99.90
3275;DHT22;1649;53.672;10.064;2023-12-20T05:29:06;5.40;99.90
3275;DHT22;1649;53.672;10.064;2023-12-20T05:31:32;5.40;99.90
3275;DHT22;1649;53.672;10.064;2023-12-20T05:33:58;5.40;99.90
3275;DHT22;1649;53.672;10.064;2023-12-20T05:36:23;5.40;99.90
3275;DHT22;1649;53.672;10.064;2023-12-20T05:38:49;5.50;99.90
3275;DHT22;1649;53.672;10.064;2023-12-20T05:41:14;5.50;99.90
3275;DHT22;1649;53.672;10.064;2023-12-20T05:43:40;5.50;99.90
3275;DHT22;1649;53.672;10.064;2023-12-20T05:46:05;5.50;99.90
3275;DHT22;1649;53.672;10.064;2023-12-20T05:48:31;5.50;99.90
3275;DHT22;1649;53.672;10.064;2023-12-20T05:50:56;5.40;99.90
3275;DHT22;1649;53.672;10.064;2023-12-20T05:53:22;5.40;99.90
3275;DHT22;1649;53.672;10.064;2023-12-20T05:55:48;5.40;99.90
3275;DHT22;1649;53.672;10.064;2023-12-20T05:58:13;5.40;99.90
3275;DHT22;1649;53.672;10.064;2023-12-20T06:00:39;5.40;99.90
3275;DHT22;1649;53.672;10.064;2023-12-20T06:03:05;5.30;99.90
3275;DHT22;1649;53.672;10.064;2023-12-20T06:05:31;5.30;99.90
3275;DHT22;1649;53.672;10.064;2023-12-20T06:07:56;5.30;99.90
3275;DHT22;1649;53.672;10.064;2023-12-20T06:10:27;5.40;99.90
3275;DHT22;1649;53.672;10.064;2023-12-20T06:12:52;5.30;99.90
3275;DHT22;1649;53.672;10.064;2023-12-20T06:15:18;5.30;99.90
3275;DHT22;1649;53.672;10.064;2023-12-20T06:17:43;5.30;99.90
3275;DHT22;1649;53.672;10.064;2023-12-20T06:20:09;5.30;99.90
3275;DHT22;1649;53.672;10.064;2023-12-20T06:22:35;5.30;99.90
3275;DHT22;1649;53.672;10.064;2023-12-20T06:25:02;5.30;99.90
3275;DHT22;1649;53.672;10.064;2023-12-20T06:27:28;5.30;99.90
3275;DHT22;1649;53.672;10.064;2023-12-20T06:29:54;5.30;99.90
3275;DHT22;1649;53.672;10.064;2023-12-20T06:32:19;5.30;99.90
3275;DHT22;1649;53.672;10.064;2023-12-20T06:34:45;5.30;99.90
3275;DHT22;1649;53.672;10.064;2023-12-20T06:37:10;5.30;99.90
3275;DHT22;1649;53.672;10.064;2023-12-20T06:39:36;5.40;99.90
3275;DHT22;1649;53.672;10.064;2023-12-20T06:42:01;5.40;99.90
3275;DHT22;1649;53.672;10.064;2023-12-20T06:44:27;5.40;99.90
3275;DHT22;1649;53.672;10.064;2023-12-20T06:46:52;5.30;99.90
3275;DHT22;1649;53.672;10.064;2023-12-20T06:49:18;5.40;99.90
3275;DHT22;1649;53.672;10.064;2023-12-20T06:51:44;5.40;99.90
3275;DHT22;1649;53.672;10.064;2023-12-20T06:54:09;5.40;99.90
3275;DHT22;1649;53.672;10.064;2023-12-20T06:56:35;5.40;99.90
3275;DHT22;1649;53.672;10.064;2023-12-20T06:59:00;5.40;99.90
3275;DHT22;1649;53.672;10.064;2023-12-20T07:01:26;5.40;99.90
3275;DHT22;1649;53.672;10.064;2023-12-20T07:03:51;5.40;99.90
3275;DHT22;1649;53.672;10.064;2023-12-20T07:06:17;5.40;99.90
3275;DHT22;1649;53.672;10.064;2023-12-20T07:08:42;5.40;99.90
3275;DHT22;1649;53.672;10.064;2023-12-20T07:11:08;5.40;99.90
3275;DHT22;1649;53.672;10.064;2023-12-20T07:13:33;5.40;99.90
3275;DHT22;1649;53.672;10.064;2023-12-20T07:15:59;5.40;99.90
3275;DHT22;1649;53.672;10.064;2023-12-20T07:18:24;5.40;99.90
3275;DHT22;1649;53.672;10.064;2023-12-20T07:20:50;5.40;99.90
3275;DHT22;1649;53.672;10.064;2023-12-20T07:23:15;5.40;99.90
3275;DHT22;1649;53.672;10.064;2023-12-20T07:25:41;5.40;99.90
3275;DHT22;1649;53.672;10.064;2023-12-20T07:28:06;5.40;99.90
3275;DHT22;1649;53.672;10.064;2023-12-20T07:30:32;5.40;99.90
3275;DHT22;1649;53.672;10.064;2023-12-20T07:32:57;5.40;99.90
3275;DHT22;1649;53.672;10.064;2023-12-20T07:35:23;5.50;99.90
3275;DHT22;1649;53.672;10.064;2023-12-20T07:37:50;5.40;99.90
3275;DHT22;1649;53.672;10.064;2023-12-20T07:40:16;5.50;99.90
3275;DHT22;1649;53.672;10.064;2023-12-20T07:42:44;5.40;99.90
3275;DHT22;1649;53.672;10.064;2023-12-20T07:45:09;5.50;99.90
3275;DHT22;1649;53.672;10.064;2023-12-20T07:47:36;5.50;99.90
3275;DHT22;1649;53.672;10.064;2023-12-20T07:50:02;5.50;99.90
3275;DHT22;1649;53.672;10.064;2023-12-20T07:52:28;5.50;99.90
3275;DHT22;1649;53.672;10.064;2023-12-20T07:54:54;5.50;99.90
3275;DHT22;1649;53.672;10.064;2023-12-20T07:57:20;5.50;99.90
3275;DHT22;1649;53.672;10.064;2023-12-20T07:59:45;5.50;99.90
3275;DHT22;1649;53.672;10.064;2023-12-20T08:02:11;5.50;99.90
3275;DHT22;1649;53.672;10.064;2023-12-20T08:04:36;5.50;99.90
3275;DHT22;1649;53.672;10.064;2023-12-20T08:07:03;5.50;99.90
3275;DHT22;1649;53.672;10.064;2023-12-20T08:09:29;5.50;99.90
3275;DHT22;1649;53.672;10.064;2023-12-20T08:11:55;5.50;99.90
3275;DHT22;1649;53.672;10.064;2023-12-20T08:14:20;5.50;99.90
3275;DHT22;1649;53.672;10.064;2023-12-20T08:16:46;5.60;99.90
3275;DHT22;1649;53.672;10.064;2023-12-20T08:19:11;5.50;99.90
3275;DHT22;1649;53.672;10.064;2023-12-20T08:21:37;5.60;99.90
3275;DHT22;1649;53.672;10.064;2023-12-20T08:24:03;5.60;99.90
3275;DHT22;1649;53.672;10.064;2023-12-20T08:26:28;5.70;99.90
3275;DHT22;1649;53.672;10.064;2023-12-20T08:28:54;5.70;99.90
3275;DHT22;1649;53.672;10.064;2023-12-20T08:31:20;5.70;99.90
3275;DHT22;1649;53.672;10.064;2023-12-20T08:33:47;5.70;99.90
3275;DHT22;1649;53.672;10.064;2023-12-20T08:36:13;5.70;99.90
3275;DHT22;1649;53.672;10.064;2023-12-20T08:38:39;5.80;99.90
3275;DHT22;1649;53.672;10.064;2023-12-20T08:41:07;5.80;99.90
3275;DHT22;1649;53.672;10.064;2023-12-20T08:43:33;5.90;99.90
3275;DHT22;1649;53.672;10.064;2023-12-20T08:45:59;5.90;99.90
3275;DHT22;1649;53.672;10.064;2023-12-20T08:48:24;5.90;99.90
3275;DHT22;1649;53.672;10.064;2023-12-20T08:50:50;6.00;99.90
3275;DHT22;1649;53.672;10.064;2023-12-20T08:53:18;6.00;99.90
3275;DHT22;1649;53.672;10.064;2023-12-20T08:55:43;6.10;99.90
3275;DHT22;1649;53.672;10.064;2023-12-20T08:58:09;6.10;99.90
3275;DHT22;1649;53.672;10.064;2023-12-20T09:00:34;6.10;99.90
3275;DHT22;1649;53.672;10.064;2023-12-20T09:03:01;6.00;99.90
3275;DHT22;1649;53.672;10.064;2023-12-20T09:05:27;6.00;99.90
3275;DHT22;1649;53.672;10.064;2023-12-20T09:07:53;5.90;99.90
3275;DHT22;1649;53.672;10.064;2023-12-20T09:10:18;5.90;99.90
3275;DHT22;1649;53.672;10.064;2023-12-20T09:12:50;5.90;99.90
3275;DHT22;1649;53.672;10.064;2023-12-20T09:15:16;5.80;99.90
3275;DHT22;1649;53.672;10.064;2023-12-20T09:17:42;5.80;99.90
3275;DHT22;1649;53.672;10.064;2023-12-20T09:20:09;5.70;99.90
3275;DHT22;1649;53.672;10.064;2023-12-20T09:22:34;5.70;99.90
3275;DHT22;1649;53.672;10.064;2023-12-20T09:25:00;5.70;99.90
3275;DHT22;1649;53.672;10.064;2023-12-20T09:27:27;5.60;99.90
3275;DHT22;1649;53.672;10.064;2023-12-20T09:29:53;5.50;99.90
3275;DHT22;1649;53.672;10.064;2023-12-20T09:32:18;5.40;99.90
3275;DHT22;1649;53.672;10.064;2023-12-20T09:34:45;5.40;99.90
3275;DHT22;1649;53.672;10.064;2023-12-20T09:37:11;5.40;99.90
3275;DHT22;1649;53.672;10.064;2023-12-20T09:39:37;5.40;99.90
3275;DHT22;1649;53.672;10.064;2023-12-20T09:42:04;5.40;99.90
3275;DHT22;1649;53.672;10.064;2023-12-20T09:44:30;5.40;99.90
3275;DHT22;1649;53.672;10.064;2023-12-20T09:46:57;5.30;99.90
3275;DHT22;1649;53.672;10.064;2023-12-20T09:49:23;5.40;99.90
3275;DHT22;1649;53.672;10.064;2023-12-20T09:51:50;5.30;99.90
3275;DHT22;1649;53.672;10.064;2023-12-20T09:54:17;5.20;99.90
3275;DHT22;1649;53.672;10.064;2023-12-20T09:56:44;5.20;99.90
3275;DHT22;1649;53.672;10.064;2023-12-20T09:59:09;5.10;99.90
3275;DHT22;1649;53.672;10.064;2023-12-20T10:01:35;5.10;99.90
3275;DHT22;1649;53.672;10.064;2023-12-20T10:04:04;5.10;99.90
3275;DHT22;1649;53.672;10.064;2023-12-20T10:06:32;5.00;99.90
3275;DHT22;1649;53.672;10.064;2023-12-20T10:08:57;5.00;99.90
3275;DHT22;1649;53.672;10.064;2023-12-20T10:11:23;5.00;99.90
3275;DHT22;1649;53.672;10.064;2023-12-20T10:13:50;5.10;99.90
3275;DHT22;1649;53.672;10.064;2023-12-20T10:16:15;5.20;99.90
3275;DHT22;1649;53.672;10.064;2023-12-20T10:18:40;5.30;99.90
3275;DHT22;1649;53.672;10.064;2023-12-20T10:21:07;5.20;99.90
3275;DHT22;1649;53.672;10.064;2023-12-20T10:23:35;5.30;99.90
3275;DHT22;1649;53.672;10.064;2023-12-20T10:26:01;5.30;99.90
3275;DHT22;1649;53.672;10.064;2023-12-20T10:28:33;5.30;99.90
3275;DHT22;1649;53.672;10.064;2023-12-20T10:30:59;5.40;99.90
3275;DHT22;1649;53.672;10.064;2023-12-20T10:33:30;5.30;99.90
3275;DHT22;1649;53.672;10.064;2023-12-20T10:35:57;5.30;99.90
3275;DHT22;1649;53.672;10.064;2023-12-20T10:38:23;5.20;99.90
3275;DHT22;1649;53.672;10.064;2023-12-20T10:40:49;5.20;99.90
3275;DHT22;1649;53.672;10.064;2023-12-20T10:43:18;5.20;99.90
3275;DHT22;1649;53.672;10.064;2023-12-20T10:45:44;5.10;99.90
3275;DHT22;1649;53.672;10.064;2023-12-20T10:48:13;5.10;99.90
3275;DHT22;1649;53.672;10.064;2023-12-20T10:50:38;5.10;99.90
3275;DHT22;1649;53.672;10.064;2023-12-20T10:53:06;5.10;99.90
3275;DHT22;1649;53.672;10.064;2023-12-20T10:55:31;5.10;99.90
3275;DHT22;1649;53.672;10.064;2023-12-20T10:58:01;5.20;99.90
3275;DHT22;1649;53.672;10.064;2023-12-20T11:00:29;5.20;99.90
3275;DHT22;1649;53.672;10.064;2023-12-20T11:03:00;5.20;99.90
3275;DHT22;1649;53.672;10.064;2023-12-20T11:05:33;5.20;99.90
3275;DHT22;1649;53.672;10.064;2023-12-20T11:08:08;5.10;99.90
3275;DHT22;1649;53.672;10.064;2023-12-20T11:11:07;5.10;99.90
3275;DHT22;1649;53.672;10.064;2023-12-20T11:14:00;5.00;99.90
3275;DHT22;1649;53.672;10.064;2023-12-20T11:16:27;5.00;99.90
3275;DHT22;1649;53.672;10.064;2023-12-20T11:18:52;4.90;99.90
3275;DHT22;1649;53.672;10.064;2023-12-20T11:21:18;4.90;99.90
3275;DHT22;1649;53.672;10.064;2023-12-20T11:23:43;4.90;99.90
3275;DHT22;1649;53.672;10.064;2023-12-20T11:26:09;4.80;99.90
3275;DHT22;1649;53.672;10.064;2023-12-20T11:28:34;4.80;99.90
3275;DHT22;1649;53.672;10.064;2023-12-20T11:31:02;4.80;99.90
3275;DHT22;1649;53.672;10.064;2023-12-20T11:35:57;4.80;99.90
3275;DHT22;1649;53.672;10.064;2023-12-20T11:38:23;4.90;99.90
3275;DHT22;1649;53.672;10.064;2023-12-20T11:40:49;5.00;99.90
3275;DHT22;1649;53.672;10.064;2023-12-20T11:43:38;5.10;99.90
3275;DHT22;1649;53.672;10.064;2023-12-20T11:46:08;5.10;99.90
3275;DHT22;1649;53.672;10.064;2023-12-20T11:48:39;5.10;99.90
3275;DHT22;1649;53.672;10.064;2023-12-20T11:51:10;5.10;99.90
3275;DHT22;1649;53.672;10.064;2023-12-20T11:53:36;5.00;99.90
3275;DHT22;1649;53.672;10.064;2023-12-20T11:56:03;5.20;99.90
3275;DHT22;1649;53.672;10.064;2023-12-20T11:58:29;5.20;99.90
3275;DHT22;1649;53.672;10.064;2023-12-20T12:00:55;5.20;99.90
3275;DHT22;1649;53.672;10.064;2023-12-20T12:03:20;5.20;99.90
3275;DHT22;1649;53.672;10.064;2023-12-20T12:05:47;5.20;99.90
3275;DHT22;1649;53.672;10.064;2023-12-20T12:08:13;5.30;99.90
3275;DHT22;1649;53.672;10.064;2023-12-20T12:10:39;5.50;99.90
3275;DHT22;1649;53.672;10.064;2023-12-20T12:13:04;5.70;99.90
3275;DHT22;1649;53.672;10.064;2023-12-20T12:15:30;5.90;99.90
3275;DHT22;1649;53.672;10.064;2023-12-20T12:17:56;5.90;99.90
3275;DHT22;1649;53.672;10.064;2023-12-20T12:20:23;5.90;99.90
3275;DHT22;1649;53.672;10.064;2023-12-20T12:23:05;5.80;99.90
3275;DHT22;1649;53.672;10.064;2023-12-20T12:25:32;5.80;99.90
3275;DHT22;1649;53.672;10.064;2023-12-20T12:27:59;5.80;99.90
3275;DHT22;1649;53.672;10.064;2023-12-20T12:30:25;5.80;99.90
3275;DHT22;1649;53.672;10.064;2023-12-20T12:32:55;5.80;99.90
3275;DHT22;1649;53.672;10.064;2023-12-20T12:35:22;6.00;99.90
3275;DHT22;1649;53.672;10.064;2023-12-20T12:37:48;6.10;99.90
3275;DHT22;1649;53.672;10.064;2023-12-20T12:40:16;6.10;99.90
3275;DHT22;1649;53.672;10.064;2023-12-20T12:42:45;6.10;99.90
3275;DHT22;1649;53.672;10.064;2023-12-20T12:45:11;6.10;99.90
3275;DHT22;1649;53.672;10.064;2023-12-20T12:47:40;6.10;99.90
3275;DHT22;1649;53.672;10.064;2023-12-20T12:50:05;6.10;99.90
3275;DHT22;1649;53.672;10.064;2023-12-20T12:52:31;6.10;99.90
3275;DHT22;1649;53.672;10.064;2023-12-20T12:54:56;6.10;99.90
3275;DHT22;1649;53.672;10.064;2023-12-20T12:57:22;6.10;99.90
3275;DHT22;1649;53.672;10.064;2023-12-20T12:59:48;6.10;99.90
3275;DHT22;1649;53.672;10.064;2023-12-20T13:02:14;6.10;99.90
3275;DHT22;1649;53.672;10.064;2023-12-20T13:04:40;6.10;99.90
3275;DHT22;1649;53.672;10.064;2023-12-20T13:07:07;6.10;99.90
3275;DHT22;1649;53.672;10.064;2023-12-20T13:09:33;6.10;99.90
3275;DHT22;1649;53.672;10.064;2023-12-20T13:11:58;6.10;99.90
3275;DHT22;1649;53.672;10.064;2023-12-20T13:14:24;6.10;99.90
3275;DHT22;1649;53.672;10.064;2023-12-20T13:16:50;6.00;99.90
3275;DHT22;1649;53.672;10.064;2023-12-20T13:19:15;6.00;99.90
3275;DHT22;1649;53.672;10.064;2023-12-20T13:21:41;5.90;99.90
3275;DHT22;1649;53.672;10.064;2023-12-20T13:24:06;5.90;99.90
3275;DHT22;1649;53.672;10.064;2023-12-20T13:26:32;5.90;99.90
3275;DHT22;1649;53.672;10.064;2023-12-20T13:28:58;6.00;99.90
3275;DHT22;1649;53.672;10.064;2023-12-20T13:31:23;6.00;99.90
3275;DHT22;1649;53.672;10.064;2023-12-20T13:33:49;6.10;99.90
3275;DHT22;1649;53.672;10.064;2023-12-20T13:36:14;6.10;99.90
3275;DHT22;1649;53.672;10.064;2023-12-20T13:38:40;6.10;99.90
3275;DHT22;1649;53.672;10.064;2023-12-20T13:41:06;6.10;99.90
3275;DHT22;1649;53.672;10.064;2023-12-20T13:43:32;6.00;99.90
3275;DHT22;1649;53.672;10.064;2023-12-20T13:45:58;6.00;99.90
3275;DHT22;1649;53.672;10.064;2023-12-20T13:48:24;5.90;99.90
3275;DHT22;1649;53.672;10.064;2023-12-20T13:50:50;5.90;99.90
3275;DHT22;1649;53.672;10.064;2023-12-20T13:53:15;5.80;99.90
3275;DHT22;1649;53.672;10.064;2023-12-20T13:55:41;5.80;99.90
3275;DHT22;1649;53.672;10.064;2023-12-20T13:58:06;5.80;99.90
3275;DHT22;1649;53.672;10.064;2023-12-20T14:00:32;5.80;99.90
3275;DHT22;1649;53.672;10.064;2023-12-20T14:02:57;5.80;99.90
3275;DHT22;1649;53.672;10.064;2023-12-20T14:05:24;5.80;99.90
3275;DHT22;1649;53.672;10.064;2023-12-20T14:07:49;5.80;99.90
3275;DHT22;1649;53.672;10.064;2023-12-20T14:10:16;5.70;99.90
3275;DHT22;1649;53.672;10.064;2023-12-20T14:12:41;5.70;99.90
3275;DHT22;1649;53.672;10.064;2023-12-20T14:15:08;5.60;99.90
3275;DHT22;1649;53.672;10.064;2023-12-20T14:17:39;5.60;99.90
3275;DHT22;1649;53.672;10.064;2023-12-20T14:20:08;5.60;99.90
3275;DHT22;1649;53.672;10.064;2023-12-20T14:22:35;5.50;99.90
3275;DHT22;1649;53.672;10.064;2023-12-20T14:25:01;5.50;99.90
3275;DHT22;1649;53.672;10.064;2023-12-20T14:27:27;5.40;99.90
3275;DHT22;1649;53.672;10.064;2023-12-20T14:29:55;5.40;99.90
3275;DHT22;1649;53.672;10.064;2023-12-20T14:32:21;5.40;99.90
3275;DHT22;1649;53.672;10.064;2023-12-20T14:34:47;5.40;99.90
3275;DHT22;1649;53.672;10.064;2023-12-20T14:37:12;5.40;99.90
3275;DHT22;1649;53.672;10.064;2023-12-20T14:39:38;5.40;99.90
3275;DHT22;1649;53.672;10.064;2023-12-20T14:42:09;5.40;99.90
3275;DHT22;1649;53.672;10.064;2023-12-20T14:44:39;5.40;99.90
3275;DHT22;1649;53.672;10.064;2023-12-20T14:47:05;5.40;99.90
3275;DHT22;1649;53.672;10.064;2023-12-20T14:49:30;5.40;99.90
3275;DHT22;1649;53.672;10.064;2023-12-20T14:51:56;5.30;99.90
3275;DHT22;1649;53.672;10.064;2023-12-20T14:54:21;5.30;99.90
3275;DHT22;1649;53.672;10.064;2023-12-20T14:56:47;5.40;99.90
3275;DHT22;1649;53.672;10.064;2023-12-20T14:59:13;5.40;99.90
3275;DHT22;1649;53.672;10.064;2023-12-20T15:01:39;5.40;99.90
3275;DHT22;1649;53.672;10.064;2023-12-20T15:04:08;5.50;99.90
3275;DHT22;1649;53.672;10.064;2023-12-20T15:06:34;5.40;99.90
3275;DHT22;1649;53.672;10.064;2023-12-20T15:09:00;5.30;99.90
3275;DHT22;1649;53.672;10.064;2023-12-20T15:11:26;5.30;99.90
3275;DHT22;1649;53.672;10.064;2023-12-20T15:13:52;5.20;99.90
3275;DHT22;1649;53.672;10.064;2023-12-20T15:16:22;5.20;99.90
3275;DHT22;1649;53.672;10.064;2023-12-20T15:18:47;5.20;99.90
3275;DHT22;1649;53.672;10.064;2023-12-20T15:21:13;5.20;99.90
3275;DHT22;1649;53.672;10.064;2023-12-20T15:23:39;5.20;99.90
3275;DHT22;1649;53.672;10.064;2023-12-20T15:26:08;5.10;99.90
3275;DHT22;1649;53.672;10.064;2023-12-20T15:28:34;5.10;99.90
3275;DHT22;1649;53.672;10.064;2023-12-20T15:30:59;5.10;99.90
3275;DHT22;1649;53.672;10.064;2023-12-20T15:33:25;5.10;99.90
3275;DHT22;1649;53.672;10.064;2023-12-20T15:35:50;5.10;99.90
3275;DHT22;1649;53.672;10.064;2023-12-20T15:38:16;5.00;99.90
3275;DHT22;1649;53.672;10.064;2023-12-20T15:40:42;5.00;99.90
3275;DHT22;1649;53.672;10.064;2023-12-20T15:43:07;5.00;99.90
3275;DHT22;1649;53.672;10.064;2023-12-20T15:45:33;5.10;99.90
3275;DHT22;1649;53.672;10.064;2023-12-20T15:47:59;5.10;99.90
3275;DHT22;1649;53.672;10.064;2023-12-20T15:50:24;5.00;99.90
3275;DHT22;1649;53.672;10.064;2023-12-20T15:52:49;5.00;99.90
3275;DHT22;1649;53.672;10.064;2023-12-20T15:55:15;5.00;99.90
3275;DHT22;1649;53.672;10.064;2023-12-20T15:57:40;4.90;99.90